• Join FlightAware (Why Join?)
  • Login
  • US Flag 
03:44AM EDT


 

Airport Tracker/Info


-or-


 

Live Flight TrackerFlight Track Log ✈ ASQ5874 ✈ 23-Sep-2013 ✈ KICT - KORD

Flight Track Log - Related Links

Times and Time Zones

All times are in EDT time to prevent confusion due to time zone crossing. See the ASQ5874 flight status page for this flight to view local times or setup timezone preferences in your user account.

Time Position Orientation Groundspeed Altitude Reporting Facility
EDT Latitude Longitude Course Direction KTS MPH feet Rate Location/Type
07:00AM 37.6325 -97.4317 15° North 164 189 2,000  Level Kansas City Center
07:00AM 37.6286 -97.4350 214° Southwest 152 175 2,300 2,160 Climbing Kansas City Center
07:01AM 37.6044 -97.4889 241° Southwest 183 211 4,400 1,920 Climbing Kansas City Center
07:02AM 37.6039 -97.5097 268° West 199 229 5,100 1,920 Climbing Kansas City Center
07:02AM 37.6272 -97.5514 305° West 249 287 6,400 1,620 Climbing Kansas City Center
07:03AM 37.6692 -97.5503 North 252 290 6,800 1,560 Climbing Kansas City Center
07:04AM 37.8489 -97.0528 25° Northeast  Level Estimated
07:04AM 37.7539 -97.5214 15° North 293 337 8,800  Level Kansas City Center
07:05AM 37.9361 -97.0821 345° North  Level FlightAware Approximate
07:05AM 37.8361 -97.4919 16° North 310 357 10,500  Level Kansas City Center
07:06AM 37.9849 -96.9859 15° North  Level Estimated
07:06AM 37.9289 -97.4575 16° North 346 398 11,400  Level Kansas City Center
07:07AM 37.9964 -97.3658 47° Northeast 359 413 12,500 1,020 Climbing Kansas City Center
07:08AM 38.0539 -97.2547 57° Northeast 374 430 13,500 1,020 Climbing Kansas City Center
07:09AM 38.1114 -97.1414 57° Northeast 383 441 14,600 1,020 Climbing Kansas City Center
07:10AM 38.1708 -97.0261 57° Northeast 391 450 15,600 1,020 Climbing Kansas City Center
07:11AM 38.2292 -96.9086 58° Northeast 393 452 16,700 1,020 Climbing Kansas City Center
07:12AM 38.2894 -96.7903 57° Northeast 398 458 17,700 1,080 Climbing Kansas City Center
07:13AM 38.3486 -96.6697 58° Northeast 401 461 18,900 1,140 Climbing Kansas City Center
07:14AM 38.4100 -96.5483 57° Northeast 406 467 20,000 1,020 Climbing Kansas City Center
07:15AM 38.4753 -96.4156 58° Northeast 412 474 21,100 1,020 Climbing Kansas City Center
07:16AM 38.5353 -96.2956 57° Northeast 419 482 22,100 960 Climbing Kansas City Center
07:17AM 38.5942 -96.1739 58° Northeast 421 484 23,100 1,080 Climbing Kansas City Center
07:18AM 38.6628 -96.0322 58° Northeast 422 486 24,300 1,080 Climbing Kansas City Center
07:19AM 38.7225 -95.9103 58° Northeast 422 486 25,300 960 Climbing Kansas City Center
07:20AM 38.7822 -95.7883 58° Northeast 423 487 26,300 1,020 Climbing Kansas City Center
07:21AM 38.8517 -95.6458 58° Northeast 422 486 27,500 1,020 Climbing Kansas City Center
07:22AM 38.9106 -95.5239 58° Northeast 420 483 28,400 960 Climbing Kansas City Center
07:23AM 38.9689 -95.4025 58° Northeast 419 482 29,500 1,080 Climbing Kansas City Center
07:24AM 39.0392 -95.2533 59° Northeast 422 486 30,700 1,080 Climbing Kansas City Center
07:25AM 39.1019 -95.1231 58° Northeast 428 493 31,700 1,020 Climbing Kansas City Center
07:26AM 39.1639 -94.9917 59° Northeast 432 497 32,800 960 Climbing Kansas City Center
07:27AM 39.2233 -94.8681 58° Northeast 428 493 33,700 900 Climbing Kansas City Center
07:28AM 39.2831 -94.7411 59° Northeast 431 496 34,700 660 Climbing Kansas City Center
07:29AM 39.3481 -94.5872 61° Northeast 442 509 35,000 120 Climbing Kansas City Center
07:30AM 39.4050 -94.4464 62° Northeast 458 527 35,000  Level Kansas City Center
07:31AM 39.4642 -94.2994 62° Northeast 479 551 35,000  Level Kansas City Center
07:32AM 39.5356 -94.1219 62° Northeast 496 571 35,000  Level Kansas City Center
07:33AM 39.5981 -93.9678 62° Northeast 504 580 35,000  Level Kansas City Center
07:34AM 39.6594 -93.8131 63° Northeast 504 580 35,000  Level Kansas City Center
07:35AM 39.7300 -93.6308 63° Northeast 504 580 35,000  Level Kansas City Center
07:36AM 39.7928 -93.4722 63° Northeast 501 577 35,000  Level Kansas City Center
07:37AM 39.8572 -93.3114 62° Northeast 504 580 35,000  Level Kansas City Center
07:38AM 39.9200 -93.1517 63° Northeast 501 577 35,000  Level Kansas City Center
07:39AM 39.9806 -92.9922 64° Northeast 499 574 35,000  Level Kansas City Center
07:40AM 40.0406 -92.8350 63° Northeast 492 566 35,000  Level Kansas City Center
07:41AM 40.1075 -92.6586 64° Northeast 490 564 35,000  Level Kansas City Center
07:42AM 40.1650 -92.5033 64° Northeast 494 568 35,000  Level Kansas City Center
07:43AM 40.2283 -92.3314 64° Northeast 495 570 35,000  Level Kansas City Center
07:44AM 40.2861 -92.1733 64° Northeast 492 566 35,000  Level Kansas City Center
07:45AM 40.3431 -92.0125 65° Northeast 493 567 35,000 -60 Level Kansas City Center
07:46AM 40.4000 -91.8519 65° Northeast 492 566 34,900 -840 Descending Kansas City Center
07:47AM 40.4567 -91.6914 65° Northeast 490 564 33,300 -1,680 Descending Kansas City Center
07:48AM 40.5092 -91.5339 66° East 481 554 31,600 -1,140 Descending Kansas City Center
07:49AM 40.5617 -91.3775 66° East 475 547 31,000 -300 Descending Kansas City Center
07:50AM 40.6203 -91.2083 65° Northeast 471 542 31,000  Level Kansas City Center
07:51AM 40.6533 -91.1156 65° Northeast 471 542 31,000  Level Chicago Center
07:52AM 40.7058 -90.9581 66° East 469 540 31,000  Level Chicago Center
07:53AM 40.7600 -90.8017 65° Northeast 468 539 31,000  Level Chicago Center
07:54AM 40.8128 -90.6433 66° East 469 540 31,000  Level Chicago Center
07:55AM 40.8658 -90.4836 66° East 466 536 31,000  Level Chicago Center
07:56AM 40.9186 -90.3281 66° East 468 539 31,000 -180 Level Chicago Center
07:57AM 40.9797 -90.1389 67° East 466 536 30,700 -1,140 Descending Chicago Center
07:58AM 41.0347 -89.9778 66° East 469 540 28,700 -2,100 Descending Chicago Center
07:59AM 41.0872 -89.8183 66° East 468 539 26,400 -2,160 Descending Chicago Center
08:00AM 41.1389 -89.6589 67° East 468 539 24,300 -2,040 Descending Chicago Center
08:01AM 41.1944 -89.5056 64° Northeast 459 528 22,300 -2,460 Descending Chicago Center
08:02AM 41.2539 -89.3631 61° Northeast 444 511 19,300 -2,760 Descending Chicago Center
08:03AM 41.3078 -89.2267 62° Northeast 422 486 16,700 -2,640 Descending Chicago Center
08:04AM 41.3656 -89.0792 62° Northeast 401 461 14,000 -2,400 Descending Chicago Center
08:05AM 41.4164 -88.9517 62° Northeast 390 449 11,900 -1,440 Descending Chicago Center
08:06AM 41.4653 -88.8278 62° Northeast 380 437 11,100 -480 Descending Chicago Center
08:07AM 41.5150 -88.7044 62° Northeast 379 436 11,000 -60 Descending Chicago Center
08:08AM 41.5561 -88.5983 63° Northeast 322 371 11,000 -420 Level Chicago Center
08:09AM 41.5953 -88.5000 62° Northeast 299 344 10,200 -1,200 Descending Chicago Center
08:10AM 41.6397 -88.4158 55° Northeast 279 321 8,600 -1,080 Descending Chicago Center
08:12AM 41.7011 -88.3306 46° Northeast 264 304 8,000 -780 Descending Chicago Center
08:13AM 41.7722 -88.2986 19° North 266 306 7,100 -780 Descending Chicago Center
08:14AM 41.8428 -88.2650 20° North 267 307 6,500 -1,140 Descending Chicago Center
08:15AM 41.9108 -88.2356 18° North 262 302 4,800 -1,260 Descending Chicago Center
08:16AM 41.9519 -88.1667 51° Northeast 260 299 4,000 -540 Descending Chicago Center
08:16AM 41.9667 -88.1167 68° East 219 252 4,000 -1,140 Level Chicago TRACON
08:17AM 41.9667 -88.0333 90° East 193 222 2,300 -1,200 Descending Chicago TRACON
08:18AM 41.9667 -87.9833 90° East 126 145 1,600 -720 Descending Chicago TRACON
08:19AM 41.9667 -87.9500 90° East 126 145 900 -720 Descending Chicago TRACON